createdAt,value
2024-02-13T00:00:39.518Z,608.00
2024-02-13T00:01:39.493Z,608.00
2024-02-13T00:02:39.549Z,608.00
2024-02-13T00:03:39.539Z,608.00
2024-02-13T00:04:39.507Z,602.00
2024-02-13T00:05:39.534Z,603.00
2024-02-13T00:06:39.491Z,604.00
2024-02-13T00:07:39.606Z,606.00
2024-02-13T00:08:45.332Z,607.00
2024-02-13T00:09:40.572Z,607.00
2024-02-13T00:10:39.536Z,607.00
2024-02-13T00:11:39.563Z,608.00
2024-02-13T00:12:39.571Z,607.00
2024-02-13T00:13:39.537Z,610.00
2024-02-13T00:14:39.602Z,610.00
2024-02-13T00:15:39.545Z,606.00
2024-02-13T00:16:39.558Z,608.00
2024-02-13T00:17:39.592Z,609.00
2024-02-13T00:18:39.605Z,606.00
2024-02-13T00:19:39.576Z,606.00
2024-02-13T00:20:39.673Z,607.00
2024-02-13T00:21:39.688Z,608.00
2024-02-13T00:22:39.708Z,605.00
2024-02-13T00:23:39.805Z,610.00
2024-02-13T00:24:39.812Z,609.00
2024-02-13T00:25:39.875Z,606.00
2024-02-13T00:26:39.942Z,609.00
2024-02-13T00:27:39.942Z,606.00
2024-02-13T00:28:39.990Z,604.00
2024-02-13T00:29:40.197Z,608.00
2024-02-13T00:30:40.114Z,610.00
2024-02-13T00:31:40.168Z,601.00
2024-02-13T00:32:40.380Z,606.00
2024-02-13T00:33:40.396Z,610.00
2024-02-13T00:34:40.323Z,609.00
2024-02-13T00:35:40.360Z,606.00
2024-02-13T00:36:40.400Z,608.00
2024-02-13T00:37:40.406Z,606.00
2024-02-13T00:38:40.556Z,605.00
2024-02-13T00:39:40.648Z,604.00
2024-02-13T00:40:40.591Z,605.00
2024-02-13T00:41:40.719Z,605.00
2024-02-13T00:42:40.676Z,603.00
2024-02-13T00:43:40.774Z,607.00
2024-02-13T00:44:40.800Z,609.00
2024-02-13T00:45:40.793Z,607.00
2024-02-13T00:46:40.866Z,606.00
2024-02-13T00:47:41.020Z,605.00
2024-02-13T00:48:41.077Z,606.00
2024-02-13T00:49:41.055Z,605.00
2024-02-13T00:50:41.105Z,605.00
2024-02-13T00:51:41.080Z,606.00
2024-02-13T00:52:41.216Z,607.00
2024-02-13T00:53:41.275Z,601.00
2024-02-13T00:54:41.672Z,605.00
2024-02-13T00:55:41.272Z,605.00
2024-02-13T00:56:41.429Z,607.00
2024-02-13T00:57:41.385Z,605.00
2024-02-13T00:58:41.428Z,606.00
2024-02-13T00:59:41.517Z,609.00
2024-02-13T01:00:41.571Z,605.00
2024-02-13T01:01:41.565Z,606.00
2024-02-13T01:02:41.752Z,607.00
2024-02-13T01:03:41.720Z,606.00
2024-02-13T01:04:41.749Z,605.00
2024-02-13T01:05:41.777Z,608.00
2024-02-13T01:06:41.855Z,607.00
2024-02-13T01:07:41.832Z,604.00
2024-02-13T01:08:41.949Z,606.00
2024-02-13T01:09:42.154Z,608.00
2024-02-13T01:10:41.985Z,607.00
2024-02-13T01:11:42.167Z,601.00
2024-02-13T01:12:42.056Z,605.00
2024-02-13T01:13:42.132Z,605.00
2024-02-13T01:14:42.193Z,606.00
2024-02-13T01:15:42.197Z,607.00
2024-02-13T01:16:42.237Z,608.00
2024-02-13T01:17:42.337Z,606.00
2024-02-13T01:18:42.405Z,610.00
2024-02-13T01:19:42.727Z,607.00
2024-02-13T01:20:42.442Z,608.00
2024-02-13T01:21:42.462Z,606.00
2024-02-13T01:22:42.557Z,602.00
2024-02-13T01:23:42.660Z,605.00
2024-02-13T01:24:42.648Z,604.00
2024-02-13T01:25:42.695Z,604.00
2024-02-13T01:26:42.804Z,610.00
2024-02-13T01:27:42.790Z,608.00
2024-02-13T01:28:42.834Z,607.00
2024-02-13T01:29:42.982Z,606.00
2024-02-13T01:30:42.965Z,603.00
2024-02-13T01:31:43.011Z,605.00
2024-02-13T01:32:43.116Z,604.00
2024-02-13T01:33:43.557Z,606.00
2024-02-13T01:34:43.685Z,605.00
2024-02-13T01:35:43.245Z,607.00
2024-02-13T01:36:43.282Z,607.00
2024-02-13T01:37:43.365Z,605.00
2024-02-13T01:38:43.425Z,606.00
2024-02-13T01:39:43.421Z,605.00
2024-02-13T01:40:43.468Z,605.00
2024-02-13T01:41:43.611Z,605.00
2024-02-13T01:42:43.554Z,607.00
2024-02-13T01:43:43.638Z,605.00
2024-02-13T01:44:43.703Z,608.00
2024-02-13T01:45:43.725Z,604.00
2024-02-13T01:46:43.856Z,606.00
2024-02-13T01:47:44.048Z,606.00
2024-02-13T01:48:43.999Z,605.00
2024-02-13T01:49:44.189Z,605.00
2024-02-13T01:50:44.016Z,607.00
2024-02-13T01:51:44.022Z,605.00
2024-02-13T01:52:44.076Z,602.00
2024-02-13T01:53:44.213Z,603.00
2024-02-13T01:54:44.157Z,607.00
2024-02-13T01:55:44.222Z,606.00
2024-02-13T01:56:44.284Z,606.00
2024-02-13T01:57:44.305Z,604.00
2024-02-13T01:58:44.348Z,605.00
2024-02-13T01:59:44.764Z,611.00
2024-02-13T02:00:44.488Z,606.00
2024-02-13T02:01:44.496Z,606.00
2024-02-13T02:02:44.594Z,607.00
2024-02-13T02:03:44.694Z,605.00
2024-02-13T02:04:44.690Z,604.00
2024-02-13T02:05:44.817Z,604.00
2024-02-13T02:06:44.801Z,603.00
2024-02-13T02:07:44.819Z,608.00
2024-02-13T02:08:44.987Z,606.00
2024-02-13T02:09:44.937Z,606.00
2024-02-13T02:10:44.985Z,604.00
2024-02-13T02:11:45.057Z,605.00
2024-02-13T02:12:57.798Z,600.00
2024-02-13T02:13:57.813Z,600.00
2024-02-13T02:14:57.847Z,600.00
2024-02-13T02:15:57.739Z,600.00
2024-02-13T02:16:57.777Z,600.00
2024-02-13T02:17:57.975Z,601.00
2024-02-13T02:18:58.095Z,603.00
2024-02-13T02:19:57.787Z,604.00
2024-02-13T02:20:57.780Z,602.00
2024-02-13T02:21:57.813Z,604.00
2024-02-13T02:22:57.820Z,601.00
2024-02-13T02:23:57.836Z,605.00
2024-02-13T02:24:57.768Z,604.00
2024-02-13T02:25:57.866Z,601.00
2024-02-13T02:26:57.839Z,603.00
2024-02-13T02:27:57.806Z,602.00
2024-02-13T02:28:57.803Z,604.00
2024-02-13T02:29:57.847Z,603.00
2024-02-13T02:30:57.830Z,603.00
2024-02-13T02:31:57.834Z,603.00
2024-02-13T02:32:57.917Z,602.00
2024-02-13T02:33:57.937Z,604.00
2024-02-13T02:34:57.791Z,605.00
2024-02-13T02:35:57.829Z,602.00
2024-02-13T02:36:57.799Z,604.00
2024-02-13T02:37:57.810Z,607.00
2024-02-13T02:38:57.858Z,605.00
2024-02-13T02:39:57.846Z,604.00
2024-02-13T02:40:57.835Z,605.00
2024-02-13T02:41:57.945Z,606.00
2024-02-13T02:42:58.003Z,605.00
2024-02-13T02:43:57.992Z,606.00
2024-02-13T02:44:58.044Z,607.00
2024-02-13T02:45:58.105Z,602.00
2024-02-13T02:46:58.125Z,603.00
2024-02-13T02:47:58.243Z,605.00
2024-02-13T02:48:58.407Z,608.00
2024-02-13T02:49:58.310Z,607.00
2024-02-13T02:50:58.430Z,600.00
2024-02-13T02:51:58.426Z,605.00
2024-02-13T02:52:58.494Z,604.00
2024-02-13T02:53:58.566Z,606.00
2024-02-13T02:54:58.568Z,606.00
2024-02-13T02:55:58.665Z,604.00
2024-02-13T02:56:58.690Z,607.00
2024-02-13T02:57:58.748Z,607.00
2024-02-13T02:58:58.894Z,604.00
2024-02-13T02:59:58.905Z,600.00
2024-02-13T03:00:58.928Z,606.00
2024-02-13T03:01:58.981Z,606.00
2024-02-13T03:02:59.209Z,604.00
2024-02-13T03:03:59.101Z,606.00
2024-02-13T03:04:59.141Z,606.00
2024-02-13T03:05:59.237Z,607.00
2024-02-13T03:06:59.295Z,608.00
2024-02-13T03:07:59.304Z,606.00
2024-02-13T03:08:59.405Z,606.00
2024-02-13T03:09:59.431Z,608.00
2024-02-13T03:10:59.417Z,607.00
2024-02-13T03:11:59.519Z,611.00
2024-02-13T03:12:59.550Z,606.00
2024-02-13T03:13:59.924Z,604.00
2024-02-13T03:14:59.668Z,607.00
2024-02-13T03:15:59.725Z,608.00
2024-02-13T03:16:59.759Z,605.00
2024-02-13T03:17:59.910Z,607.00
2024-02-13T03:18:59.957Z,603.00
2024-02-13T03:19:59.953Z,607.00
2024-02-13T03:21:00.038Z,606.00
2024-02-13T03:22:00.042Z,606.00
2024-02-13T03:23:00.159Z,608.00
2024-02-13T03:24:00.154Z,603.00
2024-02-13T03:25:02.721Z,605.00
2024-02-13T03:26:00.194Z,605.00
2024-02-13T03:27:00.212Z,605.00
2024-02-13T03:28:00.238Z,604.00
2024-02-13T03:29:00.220Z,607.00
2024-02-13T03:30:00.266Z,605.00
2024-02-13T03:31:00.235Z,607.00
2024-02-13T03:32:00.200Z,606.00
2024-02-13T03:33:00.334Z,605.00
2024-02-13T03:34:00.530Z,607.00
2024-02-13T03:35:00.248Z,606.00
2024-02-13T03:36:00.235Z,605.00
2024-02-13T03:37:00.233Z,606.00
2024-02-13T03:38:00.239Z,605.00
2024-02-13T03:39:00.273Z,607.00
2024-02-13T03:40:00.281Z,606.00
2024-02-13T03:41:00.205Z,605.00
2024-02-13T03:42:00.243Z,605.00
2024-02-13T03:43:00.231Z,605.00
2024-02-13T03:44:00.278Z,607.00
2024-02-13T03:45:00.309Z,605.00
2024-02-13T03:46:00.253Z,607.00
2024-02-13T03:47:00.256Z,604.00
2024-02-13T03:48:00.410Z,606.00
2024-02-13T03:49:00.356Z,605.00
2024-02-13T03:50:00.330Z,605.00
2024-02-13T03:51:00.336Z,606.00
2024-02-13T03:52:00.340Z,608.00
2024-02-13T03:53:00.340Z,605.00
2024-02-13T03:54:00.908Z,606.00
2024-02-13T03:55:00.507Z,607.00
2024-02-13T03:56:00.525Z,604.00
2024-02-13T03:57:00.552Z,604.00
2024-02-13T03:58:00.617Z,602.00
2024-02-13T03:59:00.700Z,604.00
2024-02-13T04:00:01.027Z,604.00
2024-02-13T04:01:00.865Z,608.00
2024-02-13T04:02:00.881Z,605.00
2024-02-13T04:03:00.870Z,603.00
2024-02-13T04:04:00.980Z,605.00
2024-02-13T04:05:00.963Z,602.00
2024-02-13T04:06:01.120Z,605.00
2024-02-13T04:07:01.027Z,602.00
2024-02-13T04:08:01.116Z,606.00
2024-02-13T04:09:01.139Z,607.00
2024-02-13T04:10:01.483Z,604.00
2024-02-13T04:11:01.252Z,605.00
2024-02-13T04:12:01.316Z,605.00
2024-02-13T04:13:01.355Z,601.00
2024-02-13T04:14:01.376Z,603.00
2024-02-13T04:15:02.019Z,603.00
2024-02-13T04:16:01.497Z,607.00
2024-02-13T04:17:01.550Z,606.00
2024-02-13T04:18:01.665Z,605.00
2024-02-13T04:19:01.745Z,604.00
2024-02-13T04:20:01.762Z,604.00
2024-02-13T04:21:01.761Z,605.00
2024-02-13T04:22:01.790Z,603.00
2024-02-13T04:23:01.859Z,603.00
2024-02-13T04:24:01.948Z,604.00
2024-02-13T04:25:02.009Z,603.00
2024-02-13T04:26:02.029Z,603.00
2024-02-13T04:27:02.079Z,603.00
2024-02-13T04:28:02.139Z,604.00
2024-02-13T04:29:02.146Z,603.00
2024-02-13T04:30:02.529Z,601.00
2024-02-13T04:31:02.299Z,604.00
2024-02-13T04:32:02.297Z,605.00
2024-02-13T04:33:09.851Z,600.00
2024-02-13T04:34:09.596Z,600.00
2024-02-13T04:35:09.731Z,600.00
2024-02-13T04:36:09.604Z,600.00
2024-02-13T04:37:09.612Z,600.00
2024-02-13T04:38:09.692Z,605.00
2024-02-13T04:39:09.735Z,603.00
2024-02-13T04:40:12.264Z,601.00
2024-02-13T04:41:09.689Z,602.00
2024-02-13T04:42:09.663Z,602.00
2024-02-13T04:43:09.652Z,600.00
2024-02-13T04:44:09.690Z,599.00
2024-02-13T04:45:09.650Z,598.00
2024-02-13T04:46:09.639Z,601.00
2024-02-13T04:47:09.731Z,603.00
2024-02-13T04:48:09.791Z,603.00
2024-02-13T04:49:09.768Z,603.00
2024-02-13T04:50:11.388Z,602.00
2024-02-13T04:51:09.665Z,602.00
2024-02-13T04:52:09.684Z,602.00
2024-02-13T04:53:09.627Z,600.00
2024-02-13T04:54:09.637Z,601.00
2024-02-13T04:55:09.637Z,601.00
2024-02-13T04:56:09.685Z,601.00
2024-02-13T04:57:09.650Z,600.00
2024-02-13T04:58:09.661Z,601.00
2024-02-13T04:59:09.699Z,602.00
2024-02-13T05:00:09.664Z,605.00
2024-02-13T05:01:09.643Z,603.00
2024-02-13T05:02:09.752Z,603.00
2024-02-13T05:03:09.661Z,601.00
2024-02-13T05:04:09.758Z,602.00
2024-02-13T05:05:09.811Z,603.00
2024-02-13T05:06:09.849Z,604.00
2024-02-13T05:07:09.676Z,603.00
2024-02-13T05:08:09.692Z,606.00
2024-02-13T05:09:09.686Z,604.00
2024-02-13T05:10:09.710Z,604.00
2024-02-13T05:11:09.667Z,607.00
2024-02-13T05:12:09.712Z,605.00
2024-02-13T05:13:09.677Z,602.00
2024-02-13T05:14:09.777Z,603.00
2024-02-13T05:15:09.701Z,604.00
2024-02-13T05:16:09.689Z,605.00
2024-02-13T05:17:09.702Z,605.00
2024-02-13T05:18:09.815Z,605.00
2024-02-13T05:19:09.821Z,603.00
2024-02-13T05:20:09.709Z,605.00
2024-02-13T05:21:09.708Z,607.00
2024-02-13T05:22:09.739Z,610.00
2024-02-13T05:23:09.709Z,608.00
2024-02-13T05:24:09.690Z,605.00
2024-02-13T05:25:09.706Z,608.00
2024-02-13T05:26:09.717Z,607.00
2024-02-13T05:27:09.722Z,605.00
2024-02-13T05:28:09.747Z,606.00
2024-02-13T05:29:09.755Z,607.00
2024-02-13T05:30:09.731Z,603.00
2024-02-13T05:31:09.759Z,603.00
2024-02-13T05:32:09.789Z,606.00
2024-02-13T05:33:09.816Z,605.00
2024-02-13T05:34:09.872Z,607.00
2024-02-13T05:35:09.778Z,602.00
2024-02-13T05:36:09.740Z,603.00
2024-02-13T05:37:09.728Z,606.00
2024-02-13T05:38:09.747Z,605.00
2024-02-13T05:39:09.752Z,606.00
2024-02-13T05:40:10.222Z,607.00
2024-02-13T05:41:09.862Z,606.00
2024-02-13T05:42:09.937Z,604.00
2024-02-13T05:43:09.929Z,606.00
2024-02-13T05:44:10.038Z,607.00
2024-02-13T05:45:10.081Z,607.00
2024-02-13T05:46:10.108Z,605.00
2024-02-13T05:47:10.165Z,605.00
2024-02-13T05:48:10.266Z,607.00
2024-02-13T05:49:10.258Z,605.00
2024-02-13T05:50:10.340Z,607.00
2024-02-13T05:51:10.346Z,604.00
2024-02-13T05:52:10.426Z,605.00
2024-02-13T05:53:10.596Z,603.00
2024-02-13T05:54:10.603Z,605.00
2024-02-13T05:55:10.731Z,605.00
2024-02-13T05:56:12.457Z,606.00
2024-02-13T05:57:10.707Z,605.00
2024-02-13T05:58:10.753Z,605.00
2024-02-13T05:59:10.946Z,607.00
2024-02-13T06:00:11.237Z,604.00
2024-02-13T06:01:11.002Z,605.00
2024-02-13T06:02:11.048Z,605.00
2024-02-13T06:03:11.031Z,606.00
2024-02-13T06:04:11.129Z,606.00
2024-02-13T06:05:11.287Z,606.00
2024-02-13T06:06:11.198Z,606.00
2024-02-13T06:07:11.192Z,603.00
2024-02-13T06:08:11.271Z,606.00
2024-02-13T06:09:11.309Z,607.00
2024-02-13T06:10:11.348Z,607.00
2024-02-13T06:11:11.491Z,602.00
2024-02-13T06:12:11.530Z,604.00
2024-02-13T06:13:12.227Z,606.00
2024-02-13T06:14:11.579Z,605.00
2024-02-13T06:15:11.614Z,604.00
2024-02-13T06:16:11.617Z,605.00
2024-02-13T06:17:11.688Z,604.00
2024-02-13T06:18:11.851Z,605.00
2024-02-13T06:19:11.828Z,603.00
2024-02-13T06:20:12.262Z,608.00
2024-02-13T06:21:11.842Z,606.00
2024-02-13T06:22:11.929Z,603.00
2024-02-13T06:23:11.976Z,605.00
2024-02-13T06:24:12.013Z,603.00
2024-02-13T06:25:12.080Z,606.00
2024-02-13T06:26:12.126Z,605.00
2024-02-13T06:27:12.160Z,605.00
2024-02-13T06:28:12.232Z,603.00
2024-02-13T06:29:12.364Z,605.00
2024-02-13T06:30:12.318Z,606.00
2024-02-13T06:31:12.370Z,600.00
2024-02-13T06:32:12.418Z,604.00
2024-02-13T06:33:12.642Z,608.00
2024-02-13T06:34:12.670Z,605.00
2024-02-13T06:35:12.843Z,605.00
2024-02-13T06:36:12.622Z,603.00
2024-02-13T06:37:12.684Z,601.00
2024-02-13T06:38:12.757Z,605.00
2024-02-13T06:39:12.862Z,604.00
2024-02-13T06:40:12.848Z,603.00
2024-02-13T06:41:13.017Z,604.00
2024-02-13T06:42:13.030Z,603.00
2024-02-13T06:43:12.975Z,604.00
2024-02-13T06:44:13.125Z,604.00
2024-02-13T06:45:13.138Z,605.00
2024-02-13T06:46:13.144Z,608.00
2024-02-13T06:47:13.266Z,606.00
2024-02-13T06:48:13.348Z,604.00
2024-02-13T06:49:13.375Z,606.00
2024-02-13T06:50:14.305Z,608.00
2024-02-13T06:51:13.436Z,602.00
2024-02-13T06:52:13.473Z,602.00
2024-02-13T06:53:13.524Z,603.00
2024-02-13T06:54:13.581Z,606.00
2024-02-13T06:55:13.637Z,600.00
2024-02-13T06:56:13.741Z,607.00
2024-02-13T06:57:13.743Z,605.00
2024-02-13T06:58:13.801Z,606.00
2024-02-13T06:59:13.911Z,602.00
2024-02-13T07:00:14.382Z,606.00
2024-02-13T07:01:14.025Z,603.00
2024-02-13T07:02:14.025Z,605.00
2024-02-13T07:03:14.039Z,606.00
2024-02-13T07:04:14.140Z,603.00
2024-02-13T07:05:14.236Z,611.00
2024-02-13T07:06:14.362Z,606.00
2024-02-13T07:07:25.621Z,606.00
2024-02-13T07:08:15.377Z,606.00
2024-02-13T07:09:14.314Z,607.00
2024-02-13T07:10:14.356Z,607.00
2024-02-13T07:11:14.293Z,608.00
2024-02-13T07:12:14.273Z,606.00
2024-02-13T07:13:14.225Z,608.00
2024-02-13T07:14:14.267Z,605.00
2024-02-13T07:15:14.330Z,610.00
2024-02-13T07:16:14.301Z,611.00
2024-02-13T07:17:14.277Z,608.00
2024-02-13T07:18:14.377Z,611.00
2024-02-13T07:19:14.574Z,610.00
2024-02-13T07:20:14.445Z,607.00
2024-02-13T07:21:14.521Z,607.00
2024-02-13T07:22:14.467Z,607.00
2024-02-13T07:23:14.531Z,608.00
2024-02-13T07:24:14.611Z,607.00
2024-02-13T07:25:14.661Z,605.00
2024-02-13T07:26:14.706Z,608.00
2024-02-13T07:27:14.734Z,608.00
2024-02-13T07:28:14.738Z,610.00
2024-02-13T07:29:14.858Z,607.00
2024-02-13T07:30:15.271Z,608.00
2024-02-13T07:31:14.899Z,605.00
2024-02-13T07:32:14.982Z,605.00
2024-02-13T07:33:15.147Z,606.00
2024-02-13T07:34:15.223Z,605.00
2024-02-13T07:35:15.096Z,608.00
2024-02-13T07:36:15.162Z,607.00
2024-02-13T07:37:15.164Z,605.00
2024-02-13T07:38:15.221Z,610.00
2024-02-13T07:39:15.269Z,607.00
2024-02-13T07:40:15.795Z,606.00
2024-02-13T07:41:15.371Z,606.00
2024-02-13T07:42:15.402Z,607.00
2024-02-13T07:43:15.463Z,607.00
2024-02-13T07:44:15.586Z,605.00
2024-02-13T07:45:15.624Z,606.00
2024-02-13T07:46:15.634Z,610.00
2024-02-13T07:47:15.713Z,605.00
2024-02-13T07:48:15.704Z,607.00
2024-02-13T07:49:15.782Z,608.00
2024-02-13T07:50:16.479Z,608.00
2024-02-13T07:51:15.832Z,607.00
2024-02-13T07:52:15.902Z,607.00
2024-02-13T07:53:15.941Z,606.00
2024-02-13T07:54:15.994Z,605.00
2024-02-13T07:55:16.055Z,606.00
2024-02-13T07:56:16.150Z,606.00
2024-02-13T07:57:16.113Z,607.00
2024-02-13T07:58:16.197Z,607.00
2024-02-13T07:59:16.259Z,602.00
2024-02-13T08:00:16.302Z,607.00
2024-02-13T08:01:16.420Z,603.00
2024-02-13T08:02:16.401Z,605.00
2024-02-13T08:03:16.434Z,607.00
2024-02-13T08:04:16.527Z,602.00
2024-02-13T08:05:16.988Z,603.00
2024-02-13T08:06:16.709Z,605.00
2024-02-13T08:07:16.656Z,605.00
2024-02-13T08:08:16.729Z,605.00
2024-02-13T08:09:16.712Z,603.00
2024-02-13T08:10:16.778Z,607.00
2024-02-13T08:11:16.862Z,609.00
2024-02-13T08:12:17.165Z,609.00
2024-02-13T08:13:16.963Z,602.00
2024-02-13T08:14:16.997Z,607.00
2024-02-13T08:15:17.079Z,607.00
2024-02-13T08:16:17.083Z,609.00
2024-02-13T08:17:17.148Z,606.00
2024-02-13T08:18:17.262Z,609.00
2024-02-13T08:19:17.316Z,607.00
2024-02-13T08:20:17.402Z,608.00
2024-02-13T08:21:17.425Z,607.00
2024-02-13T08:22:17.432Z,609.00
2024-02-13T08:23:17.430Z,604.00
2024-02-13T08:24:19.114Z,603.00
2024-02-13T08:25:17.545Z,605.00
2024-02-13T08:26:17.678Z,607.00
2024-02-13T08:27:17.672Z,600.00
2024-02-13T08:28:17.672Z,603.00
2024-02-13T08:29:17.847Z,605.00
2024-02-13T08:30:17.846Z,606.00
2024-02-13T08:31:17.843Z,609.00
2024-02-13T08:32:17.906Z,608.00
2024-02-13T08:33:18.153Z,608.00
2024-02-13T08:34:18.114Z,606.00
2024-02-13T08:35:18.154Z,606.00
2024-02-13T08:36:18.078Z,606.00
2024-02-13T08:37:18.147Z,606.00
2024-02-13T08:38:18.238Z,606.00
2024-02-13T08:39:18.222Z,601.00
2024-02-13T08:40:18.297Z,603.00
2024-02-13T08:41:18.341Z,605.00
2024-02-13T08:42:18.357Z,603.00
2024-02-13T08:43:18.429Z,609.00
2024-02-13T08:44:18.473Z,607.00
2024-02-13T08:45:19.033Z,608.00
2024-02-13T08:46:18.580Z,602.00
2024-02-13T08:47:18.732Z,604.00
2024-02-13T08:48:18.798Z,605.00
2024-02-13T08:49:19.089Z,609.00
2024-02-13T08:50:18.938Z,603.00
2024-02-13T08:51:18.907Z,608.00
2024-02-13T08:52:18.872Z,608.00
2024-02-13T08:53:18.962Z,604.00
2024-02-13T08:54:18.986Z,606.00
2024-02-13T08:55:19.028Z,603.00
2024-02-13T08:56:19.179Z,605.00
2024-02-13T08:57:19.151Z,606.00
2024-02-13T08:58:19.150Z,606.00
2024-02-13T08:59:19.219Z,605.00
2024-02-13T09:00:19.340Z,608.00
2024-02-13T09:01:19.372Z,613.00
2024-02-13T09:02:19.397Z,606.00
2024-02-13T09:03:19.403Z,609.00
2024-02-13T09:04:19.540Z,607.00
2024-02-13T09:05:19.720Z,610.00
2024-02-13T09:06:19.634Z,608.00
2024-02-13T09:07:19.594Z,603.00
2024-02-13T09:08:19.723Z,603.00
2024-02-13T09:09:19.648Z,603.00
2024-02-13T09:10:19.805Z,609.00
2024-02-13T09:11:19.755Z,608.00
2024-02-13T09:12:19.737Z,606.00
2024-02-13T09:13:19.783Z,610.00
2024-02-13T09:14:19.852Z,603.00
2024-02-13T09:15:19.905Z,606.00
2024-02-13T09:16:19.952Z,611.00
2024-02-13T09:17:20.160Z,605.00
2024-02-13T09:18:20.353Z,607.00
2024-02-13T09:19:20.135Z,606.00
2024-02-13T09:20:20.338Z,605.00
2024-02-13T09:21:20.165Z,607.00
2024-02-13T09:22:20.228Z,609.00
2024-02-13T09:23:20.323Z,606.00
2024-02-13T09:24:20.326Z,606.00
2024-02-13T09:25:20.378Z,609.00
2024-02-13T09:26:20.475Z,605.00
2024-02-13T09:27:20.408Z,609.00
2024-02-13T09:28:20.488Z,607.00
2024-02-13T09:29:20.570Z,606.00
2024-02-13T09:30:20.569Z,605.00
2024-02-13T09:31:20.617Z,609.00
2024-02-13T09:32:20.647Z,608.00
2024-02-13T09:33:20.701Z,607.00
2024-02-13T09:34:20.795Z,604.00
2024-02-13T09:35:20.840Z,609.00
2024-02-13T09:36:20.812Z,608.00
2024-02-13T09:37:20.830Z,610.00
2024-02-13T09:38:20.906Z,608.00
2024-02-13T09:39:20.896Z,609.00
2024-02-13T09:40:20.912Z,608.00
2024-02-13T09:41:21.006Z,608.00
2024-02-13T09:42:20.960Z,608.00
2024-02-13T09:43:21.030Z,609.00
2024-02-13T09:44:21.148Z,607.00
2024-02-13T09:45:21.336Z,606.00
2024-02-13T09:46:21.084Z,603.00
2024-02-13T09:47:21.162Z,609.00
2024-02-13T09:48:21.276Z,611.00
2024-02-13T09:49:21.168Z,609.00
2024-02-13T09:50:21.221Z,606.00
2024-02-13T09:51:21.192Z,607.00
2024-02-13T09:52:21.235Z,605.00
2024-02-13T09:53:21.247Z,604.00
2024-02-13T09:54:21.277Z,607.00
2024-02-13T09:55:21.836Z,605.00
2024-02-13T09:56:21.396Z,608.00
2024-02-13T09:57:21.369Z,610.00
2024-02-13T09:58:21.394Z,605.00
2024-02-13T09:59:21.449Z,606.00
2024-02-13T10:00:21.879Z,609.00
2024-02-13T10:01:21.504Z,610.00
2024-02-13T10:02:21.481Z,609.00
2024-02-13T10:03:21.543Z,607.00
2024-02-13T10:04:21.553Z,609.00
2024-02-13T10:05:21.616Z,610.00
2024-02-13T10:06:21.624Z,610.00
2024-02-13T10:07:21.543Z,612.00
2024-02-13T10:08:21.659Z,609.00
2024-02-13T10:09:21.590Z,610.00
2024-02-13T10:10:21.875Z,609.00
2024-02-13T10:11:21.681Z,606.00
2024-02-13T10:12:21.692Z,610.00
2024-02-13T10:13:21.653Z,610.00
2024-02-13T10:14:21.732Z,607.00
2024-02-13T10:15:21.720Z,608.00
2024-02-13T10:16:21.733Z,607.00
2024-02-13T10:17:21.835Z,611.00
2024-02-13T10:18:21.971Z,607.00
2024-02-13T10:19:21.831Z,611.00
2024-02-13T10:20:21.963Z,607.00
2024-02-13T10:21:21.802Z,612.00
2024-02-13T10:22:21.832Z,608.00
2024-02-13T10:23:21.886Z,611.00
2024-02-13T10:24:21.891Z,611.00
2024-02-13T10:25:24.875Z,609.00
2024-02-13T10:26:21.954Z,613.00
2024-02-13T10:27:21.891Z,612.00
2024-02-13T10:28:21.869Z,610.00
2024-02-13T10:29:21.911Z,612.00
2024-02-13T10:30:21.918Z,611.00
2024-02-13T10:31:21.864Z,607.00
2024-02-13T10:32:21.882Z,609.00
2024-02-13T10:33:21.991Z,613.00
2024-02-13T10:34:21.867Z,610.00
2024-02-13T10:35:22.456Z,609.00
2024-02-13T10:36:21.931Z,607.00
2024-02-13T10:37:21.892Z,609.00
2024-02-13T10:38:21.963Z,612.00
2024-02-13T10:39:21.894Z,606.00
2024-02-13T10:40:21.926Z,611.00
2024-02-13T10:41:21.913Z,610.00
2024-02-13T10:42:21.949Z,612.00
2024-02-13T10:43:21.910Z,611.00
2024-02-13T10:44:22.069Z,610.00
2024-02-13T10:45:22.345Z,614.00
2024-02-13T10:46:21.896Z,611.00
2024-02-13T10:47:22.021Z,608.00
2024-02-13T10:48:22.104Z,613.00
2024-02-13T10:49:22.000Z,615.00
2024-02-13T10:50:22.108Z,613.00
2024-02-13T10:51:21.912Z,609.00
2024-02-13T10:52:21.944Z,613.00
2024-02-13T10:53:21.952Z,607.00
2024-02-13T10:54:21.950Z,613.00
2024-02-13T10:55:22.337Z,611.00
2024-02-13T10:56:21.962Z,609.00
2024-02-13T10:57:21.932Z,610.00
2024-02-13T10:58:28.204Z,613.00
2024-02-13T10:59:22.966Z,613.00
2024-02-13T11:00:22.093Z,612.00
2024-02-13T11:01:23.948Z,614.00
2024-02-13T11:02:22.112Z,614.00
2024-02-13T11:03:22.040Z,613.00
2024-02-13T11:04:22.100Z,612.00
2024-02-13T11:05:22.417Z,615.00
2024-02-13T11:06:22.195Z,613.00
2024-02-13T11:07:22.028Z,617.00
2024-02-13T11:08:22.134Z,611.00
2024-02-13T11:09:22.090Z,612.00
2024-02-13T11:10:22.053Z,612.00
2024-02-13T11:11:22.092Z,613.00
2024-02-13T11:12:22.128Z,613.00
2024-02-13T11:13:22.115Z,612.00
2024-02-13T11:14:22.162Z,612.00
2024-02-13T11:15:22.103Z,611.00
2024-02-13T11:16:22.138Z,614.00
2024-02-13T11:17:22.323Z,614.00
2024-02-13T11:18:22.198Z,613.00
2024-02-13T11:19:22.184Z,613.00
2024-02-13T11:20:22.406Z,612.00
2024-02-13T11:21:22.314Z,612.00
2024-02-13T11:22:22.187Z,613.00
2024-02-13T11:23:22.234Z,614.00
2024-02-13T11:24:22.215Z,614.00
2024-02-13T11:25:22.207Z,615.00
2024-02-13T11:26:22.221Z,611.00
2024-02-13T11:27:28.085Z,614.00
2024-02-13T11:28:23.316Z,615.00
2024-02-13T11:29:22.256Z,615.00
2024-02-13T11:30:22.260Z,613.00
2024-02-13T11:31:22.190Z,616.00
2024-02-13T11:32:22.323Z,615.00
2024-02-13T11:33:22.347Z,616.00
2024-02-13T11:34:22.358Z,616.00
2024-02-13T11:35:22.494Z,613.00
2024-02-13T11:36:22.611Z,612.00
2024-02-13T11:37:22.233Z,610.00
2024-02-13T11:38:22.258Z,614.00
2024-02-13T11:39:22.220Z,615.00
2024-02-13T11:40:22.227Z,615.00
2024-02-13T11:41:22.240Z,615.00
2024-02-13T11:42:22.233Z,612.00
2024-02-13T11:43:22.228Z,614.00
2024-02-13T11:44:22.327Z,616.00
2024-02-13T11:45:22.242Z,614.00
2024-02-13T11:46:22.253Z,615.00
2024-02-13T11:47:22.528Z,614.00
2024-02-13T11:48:22.443Z,613.00
2024-02-13T11:49:22.652Z,615.00
2024-02-13T11:50:22.376Z,615.00
2024-02-13T11:51:22.302Z,612.00
2024-02-13T11:52:22.283Z,617.00
2024-02-13T11:53:22.402Z,613.00
2024-02-13T11:54:22.244Z,613.00
2024-02-13T11:55:22.348Z,613.00
2024-02-13T11:56:22.277Z,615.00
2024-02-13T11:57:22.379Z,614.00
2024-02-13T11:58:22.303Z,614.00
2024-02-13T11:59:22.297Z,616.00
2024-02-13T12:00:22.340Z,614.00
2024-02-13T12:01:22.261Z,615.00
2024-02-13T12:02:22.343Z,613.00
2024-02-13T12:03:22.267Z,612.00
2024-02-13T12:04:22.286Z,612.00
2024-02-13T12:05:22.544Z,613.00
2024-02-13T12:06:22.307Z,614.00
2024-02-13T12:07:22.274Z,617.00
2024-02-13T12:08:22.313Z,614.00
2024-02-13T12:09:22.258Z,615.00
2024-02-13T12:10:23.413Z,611.00
2024-02-13T12:11:22.354Z,615.00
2024-02-13T12:12:22.297Z,613.00
2024-02-13T12:13:22.290Z,616.00
2024-02-13T12:14:22.331Z,616.00
2024-02-13T12:15:22.307Z,615.00
2024-02-13T12:16:22.279Z,614.00
2024-02-13T12:17:22.809Z,614.00
2024-02-13T12:18:22.428Z,614.00
2024-02-13T12:19:22.283Z,612.00
2024-02-13T12:20:22.427Z,611.00
2024-02-13T12:21:22.297Z,614.00
2024-02-13T12:22:22.331Z,612.00
2024-02-13T12:23:22.391Z,616.00
2024-02-13T12:24:22.370Z,615.00
2024-02-13T12:25:22.435Z,615.00
2024-02-13T12:26:22.510Z,617.00
2024-02-13T12:27:22.487Z,615.00
2024-02-13T12:28:22.490Z,615.00
2024-02-13T12:29:22.620Z,614.00